sensor_id;sensor_type;location;lat;lon;timestamp;temperature;humidity
65203;HTU21D;51788;45.124;38.966;2023-06-10T00:01:56;21.54;111.80
65203;HTU21D;51788;45.124;38.966;2023-06-10T00:04:26;21.51;111.72
65203;HTU21D;51788;45.124;38.966;2023-06-10T00:06:53;21.49;111.71
65203;HTU21D;51788;45.124;38.966;2023-06-10T00:09:19;21.48;111.78
65203;HTU21D;51788;45.124;38.966;2023-06-10T00:11:47;21.44;111.73
65203;HTU21D;51788;45.124;38.966;2023-06-10T00:14:13;21.43;111.73
65203;HTU21D;51788;45.124;38.966;2023-06-10T00:16:39;21.42;111.68
65203;HTU21D;51788;45.124;38.966;2023-06-10T00:19:05;21.40;111.77
65203;HTU21D;51788;45.124;38.966;2023-06-10T00:21:32;21.43;111.74
65203;HTU21D;51788;45.124;38.966;2023-06-10T00:24:07;21.40;111.75
65203;HTU21D;51788;45.124;38.966;2023-06-10T00:26:40;21.39;111.65
65203;HTU21D;51788;45.124;38.966;2023-06-10T00:29:07;21.37;111.65
65203;HTU21D;51788;45.124;38.966;2023-06-10T00:31:37;21.34;111.64
65203;HTU21D;51788;45.124;38.966;2023-06-10T00:34:07;21.31;111.69
65203;HTU21D;51788;45.124;38.966;2023-06-10T00:36:33;21.28;111.61
65203;HTU21D;51788;45.124;38.966;2023-06-10T00:38:59;21.24;111.63
65203;HTU21D;51788;45.124;38.966;2023-06-10T00:41:25;21.21;111.69
65203;HTU21D;51788;45.124;38.966;2023-06-10T00:43:54;21.20;111.89
65203;HTU21D;51788;45.124;38.966;2023-06-10T00:46:21;21.18;111.77
65203;HTU21D;51788;45.124;38.966;2023-06-10T00:48:48;21.17;111.72
65203;HTU21D;51788;45.124;38.966;2023-06-10T00:51:16;21.15;111.61
65203;HTU21D;51788;45.124;38.966;2023-06-10T00:53:42;21.13;111.61
65203;HTU21D;51788;45.124;38.966;2023-06-10T00:56:09;21.09;111.68
65203;HTU21D;51788;45.124;38.966;2023-06-10T00:58:36;21.07;111.70
65203;HTU21D;51788;45.124;38.966;2023-06-10T01:01:03;21.07;111.77
65203;HTU21D;51788;45.124;38.966;2023-06-10T01:03:32;21.05;111.87
65203;HTU21D;51788;45.124;38.966;2023-06-10T01:06:38;21.05;111.74
65203;HTU21D;51788;45.124;38.966;2023-06-10T01:09:28;21.02;111.85
65203;HTU21D;51788;45.124;38.966;2023-06-10T01:12:11;20.99;111.56
65203;HTU21D;51788;45.124;38.966;2023-06-10T01:14:38;20.94;111.62
65203;HTU21D;51788;45.124;38.966;2023-06-10T01:17:06;20.90;111.72
65203;HTU21D;51788;45.124;38.966;2023-06-10T01:19:32;20.87;111.67
65203;HTU21D;51788;45.124;38.966;2023-06-10T01:22:00;20.83;111.72
65203;HTU21D;51788;45.124;38.966;2023-06-10T01:24:27;20.79;111.70
65203;HTU21D;51788;45.124;38.966;2023-06-10T01:26:55;20.76;111.74
65203;HTU21D;51788;45.124;38.966;2023-06-10T01:29:33;20.73;111.81
65203;HTU21D;51788;45.124;38.966;2023-06-10T01:32:15;20.72;111.84
65203;HTU21D;51788;45.124;38.966;2023-06-10T01:34:42;20.68;111.88
65203;HTU21D;51788;45.124;38.966;2023-06-10T01:37:13;20.65;111.87
65203;HTU21D;51788;45.124;38.966;2023-06-10T01:39:42;20.61;111.92
65203;HTU21D;51788;45.124;38.966;2023-06-10T01:42:10;20.61;111.99
65203;HTU21D;51788;45.124;38.966;2023-06-10T01:44:38;20.60;111.91
65203;HTU21D;51788;45.124;38.966;2023-06-10T01:47:08;20.61;111.93
65203;HTU21D;51788;45.124;38.966;2023-06-10T01:49:34;20.60;111.83
65203;HTU21D;51788;45.124;38.966;2023-06-10T01:52:00;20.59;111.78
65203;HTU21D;51788;45.124;38.966;2023-06-10T01:54:26;20.60;111.83
65203;HTU21D;51788;45.124;38.966;2023-06-10T01:56:52;20.62;111.89
65203;HTU21D;51788;45.124;38.966;2023-06-10T01:59:18;20.65;111.85
65203;HTU21D;51788;45.124;38.966;2023-06-10T02:01:44;20.71;111.83
65203;HTU21D;51788;45.124;38.966;2023-06-10T02:04:10;20.75;111.73
65203;HTU21D;51788;45.124;38.966;2023-06-10T02:06:36;20.74;111.71
65203;HTU21D;51788;45.124;38.966;2023-06-10T02:09:03;20.74;111.70
65203;HTU21D;51788;45.124;38.966;2023-06-10T02:11:29;20.72;111.65
65203;HTU21D;51788;45.124;38.966;2023-06-10T02:13:55;20.70;111.61
65203;HTU21D;51788;45.124;38.966;2023-06-10T02:16:21;20.69;111.62
65203;HTU21D;51788;45.124;38.966;2023-06-10T02:18:47;20.69;111.65
65203;HTU21D;51788;45.124;38.966;2023-06-10T02:21:14;20.68;111.65
65203;HTU21D;51788;45.124;38.966;2023-06-10T02:23:40;20.69;111.65
65203;HTU21D;51788;45.124;38.966;2023-06-10T02:26:06;20.68;111.53
65203;HTU21D;51788;45.124;38.966;2023-06-10T02:28:32;20.69;111.63
65203;HTU21D;51788;45.124;38.966;2023-06-10T02:30:58;20.70;111.68
65203;HTU21D;51788;45.124;38.966;2023-06-10T02:33:25;20.71;111.60
65203;HTU21D;51788;45.124;38.966;2023-06-10T02:35:53;20.69;111.49
65203;HTU21D;51788;45.124;38.966;2023-06-10T02:38:19;20.69;111.61
65203;HTU21D;51788;45.124;38.966;2023-06-10T02:40:45;20.73;111.74
65203;HTU21D;51788;45.124;38.966;2023-06-10T02:43:12;20.75;111.75
65203;HTU21D;51788;45.124;38.966;2023-06-10T02:45:38;20.79;111.69
65203;HTU21D;51788;45.124;38.966;2023-06-10T02:48:06;20.80;111.65
65203;HTU21D;51788;45.124;38.966;2023-06-10T02:50:33;20.78;111.55
65203;HTU21D;51788;45.124;38.966;2023-06-10T02:53:19;20.79;111.54
65203;HTU21D;51788;45.124;38.966;2023-06-10T02:55:51;20.85;111.55
65203;HTU21D;51788;45.124;38.966;2023-06-10T02:58:19;20.85;111.47
65203;HTU21D;51788;45.124;38.966;2023-06-10T03:00:47;20.85;111.52
65203;HTU21D;51788;45.124;38.966;2023-06-10T03:03:14;20.79;111.42
65203;HTU21D;51788;45.124;38.966;2023-06-10T03:06:00;20.78;111.47
65203;HTU21D;51788;45.124;38.966;2023-06-10T03:08:27;20.73;111.53
65203;HTU21D;51788;45.124;38.966;2023-06-10T03:10:54;20.75;111.52
65203;HTU21D;51788;45.124;38.966;2023-06-10T03:13:20;20.76;111.66
65203;HTU21D;51788;45.124;38.966;2023-06-10T03:15:47;20.77;111.68
65203;HTU21D;51788;45.124;38.966;2023-06-10T03:18:17;20.78;111.62
65203;HTU21D;51788;45.124;38.966;2023-06-10T03:20:43;20.81;111.64
65203;HTU21D;51788;45.124;38.966;2023-06-10T03:23:10;20.81;111.66
65203;HTU21D;51788;45.124;38.966;2023-06-10T03:25:37;20.80;111.55
65203;HTU21D;51788;45.124;38.966;2023-06-10T03:28:03;20.80;111.58
65203;HTU21D;51788;45.124;38.966;2023-06-10T03:30:29;20.81;111.58
65203;HTU21D;51788;45.124;38.966;2023-06-10T03:32:55;20.80;111.59
65203;HTU21D;51788;45.124;38.966;2023-06-10T03:35:24;20.80;111.52
65203;HTU21D;51788;45.124;38.966;2023-06-10T03:37:50;20.77;111.61
65203;HTU21D;51788;45.124;38.966;2023-06-10T03:40:16;20.79;111.64
65203;HTU21D;51788;45.124;38.966;2023-06-10T03:42:45;20.83;111.69
65203;HTU21D;51788;45.124;38.966;2023-06-10T03:45:13;20.83;111.61
65203;HTU21D;51788;45.124;38.966;2023-06-10T03:47:40;20.86;111.46
65203;HTU21D;51788;45.124;38.966;2023-06-10T03:50:09;20.90;111.66
65203;HTU21D;51788;45.124;38.966;2023-06-10T03:52:37;20.92;111.54
65203;HTU21D;51788;45.124;38.966;2023-06-10T03:55:04;20.94;111.39
65203;HTU21D;51788;45.124;38.966;2023-06-10T03:57:31;20.94;111.45
65203;HTU21D;51788;45.124;38.966;2023-06-10T03:59:58;20.94;111.55
65203;HTU21D;51788;45.124;38.966;2023-06-10T04:02:24;20.96;111.48
65203;HTU21D;51788;45.124;38.966;2023-06-10T04:04:50;20.98;111.49
65203;HTU21D;51788;45.124;38.966;2023-06-10T04:07:17;20.98;111.45
65203;HTU21D;51788;45.124;38.966;2023-06-10T04:09:44;20.95;111.41
65203;HTU21D;51788;45.124;38.966;2023-06-10T04:12:10;20.93;111.42
65203;HTU21D;51788;45.124;38.966;2023-06-10T04:14:36;20.91;111.36
65203;HTU21D;51788;45.124;38.966;2023-06-10T04:17:05;20.91;111.44
65203;HTU21D;51788;45.124;38.966;2023-06-10T04:19:35;20.91;111.33
65203;HTU21D;51788;45.124;38.966;2023-06-10T04:22:02;20.86;111.22
65203;HTU21D;51788;45.124;38.966;2023-06-10T04:24:31;20.81;111.24
65203;HTU21D;51788;45.124;38.966;2023-06-10T04:26:57;20.76;111.36
65203;HTU21D;51788;45.124;38.966;2023-06-10T04:29:23;20.78;111.22
65203;HTU21D;51788;45.124;38.966;2023-06-10T04:31:50;20.83;111.32
65203;HTU21D;51788;45.124;38.966;2023-06-10T04:34:16;20.80;111.00
65203;HTU21D;51788;45.124;38.966;2023-06-10T04:36:43;20.80;111.23
65203;HTU21D;51788;45.124;38.966;2023-06-10T04:39:09;20.88;111.25
65203;HTU21D;51788;45.124;38.966;2023-06-10T04:41:36;20.92;111.18
65203;HTU21D;51788;45.124;38.966;2023-06-10T04:44:02;20.94;111.00
65203;HTU21D;51788;45.124;38.966;2023-06-10T04:46:28;20.95;111.00
65203;HTU21D;51788;45.124;38.966;2023-06-10T04:48:56;20.99;111.10
65203;HTU21D;51788;45.124;38.966;2023-06-10T04:51:22;21.08;111.04
65203;HTU21D;51788;45.124;38.966;2023-06-10T04:53:49;21.11;110.87
65203;HTU21D;51788;45.124;38.966;2023-06-10T04:56:15;21.13;110.82
65203;HTU21D;51788;45.124;38.966;2023-06-10T04:58:41;21.16;110.76
65203;HTU21D;51788;45.124;38.966;2023-06-10T05:01:08;21.21;110.68
65203;HTU21D;51788;45.124;38.966;2023-06-10T05:03:34;21.31;110.65
65203;HTU21D;51788;45.124;38.966;2023-06-10T05:06:00;21.44;110.39
65203;HTU21D;51788;45.124;38.966;2023-06-10T05:08:26;21.48;110.26
65203;HTU21D;51788;45.124;38.966;2023-06-10T05:10:52;21.52;110.25
65203;HTU21D;51788;45.124;38.966;2023-06-10T05:13:18;21.59;110.25
65203;HTU21D;51788;45.124;38.966;2023-06-10T05:15:44;21.64;110.29
65203;HTU21D;51788;45.124;38.966;2023-06-10T05:18:11;21.79;110.25
65203;HTU21D;51788;45.124;38.966;2023-06-10T05:20:40;21.88;110.00
65203;HTU21D;51788;45.124;38.966;2023-06-10T05:23:06;21.91;110.09
65203;HTU21D;51788;45.124;38.966;2023-06-10T05:25:33;21.98;109.78
65203;HTU21D;51788;45.124;38.966;2023-06-10T05:27:59;21.95;109.59
65203;HTU21D;51788;45.124;38.966;2023-06-10T05:30:25;21.94;109.67
65203;HTU21D;51788;45.124;38.966;2023-06-10T05:32:52;21.98;109.87
65203;HTU21D;51788;45.124;38.966;2023-06-10T05:35:18;22.05;109.72
65203;HTU21D;51788;45.124;38.966;2023-06-10T05:37:44;22.09;109.62
65203;HTU21D;51788;45.124;38.966;2023-06-10T05:40:11;22.09;109.82
65203;HTU21D;51788;45.124;38.966;2023-06-10T05:42:37;22.16;109.78
65203;HTU21D;51788;45.124;38.966;2023-06-10T05:45:03;22.17;109.88
65203;HTU21D;51788;45.124;38.966;2023-06-10T05:47:29;22.16;109.66
65203;HTU21D;51788;45.124;38.966;2023-06-10T05:49:55;22.07;109.72
65203;HTU21D;51788;45.124;38.966;2023-06-10T05:52:21;22.03;109.88
65203;HTU21D;51788;45.124;38.966;2023-06-10T05:54:48;22.03;109.97
65203;HTU21D;51788;45.124;38.966;2023-06-10T05:57:14;22.08;109.95
65203;HTU21D;51788;45.124;38.966;2023-06-10T05:59:39;22.09;110.00
65203;HTU21D;51788;45.124;38.966;2023-06-10T06:02:06;22.16;109.73
65203;HTU21D;51788;45.124;38.966;2023-06-10T06:04:32;22.25;109.90
65203;HTU21D;51788;45.124;38.966;2023-06-10T06:06:58;22.37;109.58
65203;HTU21D;51788;45.124;38.966;2023-06-10T06:09:24;22.49;109.33
65203;HTU21D;51788;45.124;38.966;2023-06-10T06:11:50;22.48;109.39
65203;HTU21D;51788;45.124;38.966;2023-06-10T06:14:16;22.40;109.21
65203;HTU21D;51788;45.124;38.966;2023-06-10T06:16:42;22.39;109.36
65203;HTU21D;51788;45.124;38.966;2023-06-10T06:19:08;22.50;109.36
65203;HTU21D;51788;45.124;38.966;2023-06-10T06:21:35;22.55;109.36
65203;HTU21D;51788;45.124;38.966;2023-06-10T06:24:01;22.66;109.14
65203;HTU21D;51788;45.124;38.966;2023-06-10T06:26:27;22.71;109.09
65203;HTU21D;51788;45.124;38.966;2023-06-10T06:28:53;22.73;109.14
65203;HTU21D;51788;45.124;38.966;2023-06-10T06:31:19;22.71;108.86
65203;HTU21D;51788;45.124;38.966;2023-06-10T06:33:45;22.65;109.12
65203;HTU21D;51788;45.124;38.966;2023-06-10T06:36:10;22.62;109.36
65203;HTU21D;51788;45.124;38.966;2023-06-10T06:38:36;22.66;109.59
65203;HTU21D;51788;45.124;38.966;2023-06-10T06:41:03;22.70;109.53
65203;HTU21D;51788;45.124;38.966;2023-06-10T06:43:35;22.76;109.29
65203;HTU21D;51788;45.124;38.966;2023-06-10T06:46:20;22.84;109.46
65203;HTU21D;51788;45.124;38.966;2023-06-10T06:48:47;22.76;109.28
65203;HTU21D;51788;45.124;38.966;2023-06-10T06:51:13;22.79;109.76
65203;HTU21D;51788;45.124;38.966;2023-06-10T06:53:39;22.97;109.54
65203;HTU21D;51788;45.124;38.966;2023-06-10T06:56:12;23.03;109.39
65203;HTU21D;51788;45.124;38.966;2023-06-10T06:58:38;23.08;109.40
65203;HTU21D;51788;45.124;38.966;2023-06-10T07:01:05;23.14;109.58
65203;HTU21D;51788;45.124;38.966;2023-06-10T07:03:30;23.23;109.38
65203;HTU21D;51788;45.124;38.966;2023-06-10T07:05:57;23.25;109.47
65203;HTU21D;51788;45.124;38.966;2023-06-10T07:08:23;23.32;109.62
65203;HTU21D;51788;45.124;38.966;2023-06-10T07:10:49;23.27;109.58
65203;HTU21D;51788;45.124;38.966;2023-06-10T07:13:15;23.36;109.84
65203;HTU21D;51788;45.124;38.966;2023-06-10T07:15:41;23.45;109.62
65203;HTU21D;51788;45.124;38.966;2023-06-10T07:18:07;23.46;109.58
65203;HTU21D;51788;45.124;38.966;2023-06-10T07:20:33;23.51;109.57
65203;HTU21D;51788;45.124;38.966;2023-06-10T07:22:59;23.62;109.53
65203;HTU21D;51788;45.124;38.966;2023-06-10T07:25:25;23.85;109.16
65203;HTU21D;51788;45.124;38.966;2023-06-10T07:27:51;23.92;108.99
65203;HTU21D;51788;45.124;38.966;2023-06-10T07:30:17;24.03;108.72
65203;HTU21D;51788;45.124;38.966;2023-06-10T07:32:43;24.08;108.36
65203;HTU21D;51788;45.124;38.966;2023-06-10T07:35:10;24.13;108.26
65203;HTU21D;51788;45.124;38.966;2023-06-10T07:37:39;24.15;108.25
65203;HTU21D;51788;45.124;38.966;2023-06-10T07:40:05;24.14;108.27
65203;HTU21D;51788;45.124;38.966;2023-06-10T07:42:35;24.30;108.55
65203;HTU21D;51788;45.124;38.966;2023-06-10T07:45:02;24.46;108.09
65203;HTU21D;51788;45.124;38.966;2023-06-10T07:47:29;24.57;107.74
65203;HTU21D;51788;45.124;38.966;2023-06-10T07:49:55;24.53;107.74
65203;HTU21D;51788;45.124;38.966;2023-06-10T07:52:24;24.46;107.97
65203;HTU21D;51788;45.124;38.966;2023-06-10T07:54:51;24.42;108.24
65203;HTU21D;51788;45.124;38.966;2023-06-10T07:57:19;24.38;108.30
65203;HTU21D;51788;45.124;38.966;2023-06-10T07:59:45;24.38;108.49
65203;HTU21D;51788;45.124;38.966;2023-06-10T08:02:11;24.36;108.35
65203;HTU21D;51788;45.124;38.966;2023-06-10T08:04:37;24.34;108.32
65203;HTU21D;51788;45.124;38.966;2023-06-10T08:07:03;24.32;108.56
65203;HTU21D;51788;45.124;38.966;2023-06-10T08:09:29;24.34;108.66
65203;HTU21D;51788;45.124;38.966;2023-06-10T08:11:55;24.36;108.53
65203;HTU21D;51788;45.124;38.966;2023-06-10T08:14:21;24.46;108.64
65203;HTU21D;51788;45.124;38.966;2023-06-10T08:16:47;24.46;108.22
65203;HTU21D;51788;45.124;38.966;2023-06-10T08:19:13;24.38;108.23
65203;HTU21D;51788;45.124;38.966;2023-06-10T08:21:39;24.40;108.52
65203;HTU21D;51788;45.124;38.966;2023-06-10T08:24:06;24.53;108.52
65203;HTU21D;51788;45.124;38.966;2023-06-10T08:26:32;24.62;108.20
65203;HTU21D;51788;45.124;38.966;2023-06-10T08:28:58;24.80;108.03
65203;HTU21D;51788;45.124;38.966;2023-06-10T08:31:24;24.99;107.64
65203;HTU21D;51788;45.124;38.966;2023-06-10T08:33:50;25.14;107.58
65203;HTU21D;51788;45.124;38.966;2023-06-10T08:36:16;25.14;107.34
65203;HTU21D;51788;45.124;38.966;2023-06-10T08:38:42;25.18;107.66
65203;HTU21D;51788;45.124;38.966;2023-06-10T08:41:09;25.35;107.54
65203;HTU21D;51788;45.124;38.966;2023-06-10T08:43:44;25.44;107.01
65203;HTU21D;51788;45.124;38.966;2023-06-10T08:46:12;25.34;106.98
65203;HTU21D;51788;45.124;38.966;2023-06-10T08:48:43;25.25;107.49
65203;HTU21D;51788;45.124;38.966;2023-06-10T08:51:13;25.21;107.39
65203;HTU21D;51788;45.124;38.966;2023-06-10T08:53:48;25.19;107.71
65203;HTU21D;51788;45.124;38.966;2023-06-10T08:56:17;25.15;107.88
65203;HTU21D;51788;45.124;38.966;2023-06-10T08:58:43;25.06;108.14
65203;HTU21D;51788;45.124;38.966;2023-06-10T09:01:10;25.05;108.60
65203;HTU21D;51788;45.124;38.966;2023-06-10T09:03:37;25.06;108.57
65203;HTU21D;51788;45.124;38.966;2023-06-10T09:06:05;25.16;108.72
65203;HTU21D;51788;45.124;38.966;2023-06-10T09:08:33;25.18;108.75
65203;HTU21D;51788;45.124;38.966;2023-06-10T09:11:00;25.23;108.51
65203;HTU21D;51788;45.124;38.966;2023-06-10T09:13:26;25.04;108.78
65203;HTU21D;51788;45.124;38.966;2023-06-10T09:15:52;25.01;108.81
65203;HTU21D;51788;45.124;38.966;2023-06-10T09:18:18;25.03;108.81
65203;HTU21D;51788;45.124;38.966;2023-06-10T09:20:44;25.14;109.02
65203;HTU21D;51788;45.124;38.966;2023-06-10T09:23:10;25.19;108.81
65203;HTU21D;51788;45.124;38.966;2023-06-10T09:25:37;25.25;108.68
65203;HTU21D;51788;45.124;38.966;2023-06-10T09:28:04;25.25;108.76
65203;HTU21D;51788;45.124;38.966;2023-06-10T09:30:32;25.38;108.55
65203;HTU21D;51788;45.124;38.966;2023-06-10T09:33:03;25.47;108.62
65203;HTU21D;51788;45.124;38.966;2023-06-10T09:35:34;25.66;108.11
65203;HTU21D;51788;45.124;38.966;2023-06-10T09:38:01;25.72;107.91
65203;HTU21D;51788;45.124;38.966;2023-06-10T09:40:28;25.78;108.20
65203;HTU21D;51788;45.124;38.966;2023-06-10T09:42:59;25.89;108.07
65203;HTU21D;51788;45.124;38.966;2023-06-10T09:45:32;26.05;107.70
65203;HTU21D;51788;45.124;38.966;2023-06-10T09:47:58;26.03;107.78
65203;HTU21D;51788;45.124;38.966;2023-06-10T09:50:24;26.17;107.95
65203;HTU21D;51788;45.124;38.966;2023-06-10T09:52:51;26.23;107.99
65203;HTU21D;51788;45.124;38.966;2023-06-10T09:55:17;26.22;108.04
65203;HTU21D;51788;45.124;38.966;2023-06-10T09:57:44;26.35;108.16
65203;HTU21D;51788;45.124;38.966;2023-06-10T10:00:14;26.47;108.09
65203;HTU21D;51788;45.124;38.966;2023-06-10T10:02:51;26.42;107.78
65203;HTU21D;51788;45.124;38.966;2023-06-10T10:05:20;26.36;108.18
65203;HTU21D;51788;45.124;38.966;2023-06-10T10:07:47;26.40;108.06
65203;HTU21D;51788;45.124;38.966;2023-06-10T10:10:17;26.47;108.23
65203;HTU21D;51788;45.124;38.966;2023-06-10T10:12:46;26.60;108.11
65203;HTU21D;51788;45.124;38.966;2023-06-10T10:15:12;26.63;108.00
65203;HTU21D;51788;45.124;38.966;2023-06-10T10:20:29;26.45;108.27
65203;HTU21D;51788;45.124;38.966;2023-06-10T10:22:57;26.43;108.45
65203;HTU21D;51788;45.124;38.966;2023-06-10T10:25:34;26.46;108.62
65203;HTU21D;51788;45.124;38.966;2023-06-10T10:28:10;26.42;108.62
65203;HTU21D;51788;45.124;38.966;2023-06-10T10:30:43;26.41;108.69
65203;HTU21D;51788;45.124;38.966;2023-06-10T10:33:18;26.51;108.46
65203;HTU21D;51788;45.124;38.966;2023-06-10T10:35:46;26.57;108.54
65203;HTU21D;51788;45.124;38.966;2023-06-10T10:38:12;26.71;108.44
65203;HTU21D;51788;45.124;38.966;2023-06-10T10:40:39;26.89;108.17
65203;HTU21D;51788;45.124;38.966;2023-06-10T10:43:05;27.02;107.85
65203;HTU21D;51788;45.124;38.966;2023-06-10T10:45:33;27.06;107.48
65203;HTU21D;51788;45.124;38.966;2023-06-10T10:48:05;27.02;107.61
65203;HTU21D;51788;45.124;38.966;2023-06-10T10:50:31;27.11;107.73
65203;HTU21D;51788;45.124;38.966;2023-06-10T10:53:05;27.26;107.34
65203;HTU21D;51788;45.124;38.966;2023-06-10T10:55:31;27.23;107.28
65203;HTU21D;51788;45.124;38.966;2023-06-10T11:00:32;27.28;107.42
65203;HTU21D;51788;45.124;38.966;2023-06-10T11:03:00;27.37;107.25
65203;HTU21D;51788;45.124;38.966;2023-06-10T11:05:42;27.24;107.08
65203;HTU21D;51788;45.124;38.966;2023-06-10T11:08:15;27.20;107.48
65203;HTU21D;51788;45.124;38.966;2023-06-10T11:11:17;27.28;107.35
65203;HTU21D;51788;45.124;38.966;2023-06-10T11:14:07;27.02;107.33
65203;HTU21D;51788;45.124;38.966;2023-06-10T11:16:42;26.84;107.72
65203;HTU21D;51788;45.124;38.966;2023-06-10T11:19:09;26.83;108.18
65203;HTU21D;51788;45.124;38.966;2023-06-10T11:21:57;26.96;108.04
65203;HTU21D;51788;45.124;38.966;2023-06-10T11:24:25;27.01;107.80
65203;HTU21D;51788;45.124;38.966;2023-06-10T11:26:51;27.07;107.62
65203;HTU21D;51788;45.124;38.966;2023-06-10T11:29:17;27.14;107.56
65203;HTU21D;51788;45.124;38.966;2023-06-10T11:31:49;27.16;107.52
65203;HTU21D;51788;45.124;38.966;2023-06-10T11:34:20;27.21;107.31
65203;HTU21D;51788;45.124;38.966;2023-06-10T11:36:49;27.16;107.30
65203;HTU21D;51788;45.124;38.966;2023-06-10T11:39:15;27.14;107.39
65203;HTU21D;51788;45.124;38.966;2023-06-10T11:41:41;27.13;107.51
65203;HTU21D;51788;45.124;38.966;2023-06-10T11:46:34;27.12;107.37
65203;HTU21D;51788;45.124;38.966;2023-06-10T11:49:01;27.13;107.82
65203;HTU21D;51788;45.124;38.966;2023-06-10T11:51:38;27.07;107.73
65203;HTU21D;51788;45.124;38.966;2023-06-10T11:54:05;27.11;107.86
65203;HTU21D;51788;45.124;38.966;2023-06-10T11:56:32;27.11;107.85
65203;HTU21D;51788;45.124;38.966;2023-06-10T11:59:05;27.10;107.84
65203;HTU21D;51788;45.124;38.966;2023-06-10T12:01:43;27.10;107.90
65203;HTU21D;51788;45.124;38.966;2023-06-10T12:04:11;27.11;107.88
65203;HTU21D;51788;45.124;38.966;2023-06-10T12:06:42;27.01;108.06
65203;HTU21D;51788;45.124;38.966;2023-06-10T12:09:25;27.04;108.31
65203;HTU21D;51788;45.124;38.966;2023-06-10T12:11:54;27.17;108.48
65203;HTU21D;51788;45.124;38.966;2023-06-10T12:14:57;27.22;108.22
65203;HTU21D;51788;45.124;38.966;2023-06-10T12:17:35;27.21;108.23
65203;HTU21D;51788;45.124;38.966;2023-06-10T12:20:08;27.29;108.31
65203;HTU21D;51788;45.124;38.966;2023-06-10T12:22:39;27.37;108.21
65203;HTU21D;51788;45.124;38.966;2023-06-10T12:25:06;27.39;108.06
65203;HTU21D;51788;45.124;38.966;2023-06-10T12:27:33;27.43;107.98
65203;HTU21D;51788;45.124;38.966;2023-06-10T12:30:03;27.55;108.04
65203;HTU21D;51788;45.124;38.966;2023-06-10T12:32:43;27.67;107.76
65203;HTU21D;51788;45.124;38.966;2023-06-10T12:35:12;27.68;107.43
65203;HTU21D;51788;45.124;38.966;2023-06-10T12:37:41;27.67;107.59
65203;HTU21D;51788;45.124;38.966;2023-06-10T12:40:08;27.69;107.63
65203;HTU21D;51788;45.124;38.966;2023-06-10T12:42:38;27.64;107.50
65203;HTU21D;51788;45.124;38.966;2023-06-10T12:45:05;27.60;107.70
65203;HTU21D;51788;45.124;38.966;2023-06-10T12:47:37;27.64;107.36
65203;HTU21D;51788;45.124;38.966;2023-06-10T12:50:07;27.65;107.56
65203;HTU21D;51788;45.124;38.966;2023-06-10T12:52:33;27.69;107.45
65203;HTU21D;51788;45.124;38.966;2023-06-10T12:54:59;27.67;107.49
65203;HTU21D;51788;45.124;38.966;2023-06-10T12:57:26;27.65;107.56
65203;HTU21D;51788;45.124;38.966;2023-06-10T12:59:52;27.63;107.46
65203;HTU21D;51788;45.124;38.966;2023-06-10T13:02:19;27.55;107.59
65203;HTU21D;51788;45.124;38.966;2023-06-10T13:04:52;27.57;107.66
65203;HTU21D;51788;45.124;38.966;2023-06-10T13:07:19;27.57;107.83
65203;HTU21D;51788;45.124;38.966;2023-06-10T13:09:45;27.59;107.79
65203;HTU21D;51788;45.124;38.966;2023-06-10T13:12:14;27.59;107.59
65203;HTU21D;51788;45.124;38.966;2023-06-10T13:14:40;27.45;107.67
65203;HTU21D;51788;45.124;38.966;2023-06-10T13:17:06;27.38;107.75
65203;HTU21D;51788;45.124;38.966;2023-06-10T13:19:33;27.27;107.91
65203;HTU21D;51788;45.124;38.966;2023-06-10T13:22:00;27.15;107.96
65203;HTU21D;51788;45.124;38.966;2023-06-10T13:24:26;27.02;107.99
65203;HTU21D;51788;45.124;38.966;2023-06-10T13:26:53;26.86;108.11
65203;HTU21D;51788;45.124;38.966;2023-06-10T13:29:20;26.70;108.29
65203;HTU21D;51788;45.124;38.966;2023-06-10T13:31:46;26.54;108.43
65203;HTU21D;51788;45.124;38.966;2023-06-10T13:34:12;26.42;108.59
65203;HTU21D;51788;45.124;38.966;2023-06-10T13:36:38;26.32;108.59
65203;HTU21D;51788;45.124;38.966;2023-06-10T13:39:04;26.21;108.78
65203;HTU21D;51788;45.124;38.966;2023-06-10T13:41:30;26.07;108.94
65203;HTU21D;51788;45.124;38.966;2023-06-10T13:43:55;25.97;108.84
65203;HTU21D;51788;45.124;38.966;2023-06-10T13:46:22;25.72;108.79
65203;HTU21D;51788;45.124;38.966;2023-06-10T13:48:48;25.53;109.05
65203;HTU21D;51788;45.124;38.966;2023-06-10T13:51:14;25.36;109.30
65203;HTU21D;51788;45.124;38.966;2023-06-10T13:53:40;25.27;109.42
65203;HTU21D;51788;45.124;38.966;2023-06-10T13:56:06;25.13;109.44
65203;HTU21D;51788;45.124;38.966;2023-06-10T13:58:32;24.97;109.45
65203;HTU21D;51788;45.124;38.966;2023-06-10T14:01:04;24.80;109.52
65203;HTU21D;51788;45.124;38.966;2023-06-10T14:03:31;24.65;109.55
65203;HTU21D;51788;45.124;38.966;2023-06-10T14:05:57;24.51;109.43
65203;HTU21D;51788;45.124;38.966;2023-06-10T14:08:23;24.38;109.43
65203;HTU21D;51788;45.124;38.966;2023-06-10T14:10:49;24.24;109.68
65203;HTU21D;51788;45.124;38.966;2023-06-10T14:13:17;24.15;110.08
65203;HTU21D;51788;45.124;38.966;2023-06-10T14:15:43;24.05;110.32
65203;HTU21D;51788;45.124;38.966;2023-06-10T14:18:09;23.92;110.36
65203;HTU21D;51788;45.124;38.966;2023-06-10T14:20:35;23.71;110.13
65203;HTU21D;51788;45.124;38.966;2023-06-10T14:23:02;23.52;110.17
65203;HTU21D;51788;45.124;38.966;2023-06-10T14:25:28;23.28;110.11
65203;HTU21D;51788;45.124;38.966;2023-06-10T14:27:54;23.09;110.53
65203;HTU21D;51788;45.124;38.966;2023-06-10T14:30:20;23.12;111.10
65203;HTU21D;51788;45.124;38.966;2023-06-10T14:32:46;23.13;111.36
65203;HTU21D;51788;45.124;38.966;2023-06-10T14:35:12;23.16;111.47
65203;HTU21D;51788;45.124;38.966;2023-06-10T14:37:38;23.16;111.40
65203;HTU21D;51788;45.124;38.966;2023-06-10T14:40:05;23.20;111.36
65203;HTU21D;51788;45.124;38.966;2023-06-10T14:42:31;23.30;111.27
65203;HTU21D;51788;45.124;38.966;2023-06-10T14:44:58;23.39;111.11
65203;HTU21D;51788;45.124;38.966;2023-06-10T14:47:24;23.45;110.94
65203;HTU21D;51788;45.124;38.966;2023-06-10T14:49:50;23.51;110.87
65203;HTU21D;51788;45.124;38.966;2023-06-10T14:52:16;23.52;110.48
65203;HTU21D;51788;45.124;38.966;2023-06-10T14:54:42;23.47;110.60
65203;HTU21D;51788;45.124;38.966;2023-06-10T14:57:08;23.47;110.65
65203;HTU21D;51788;45.124;38.966;2023-06-10T14:59:34;23.53;110.74
65203;HTU21D;51788;45.124;38.966;2023-06-10T15:02:00;23.55;110.48